sensor_id;sensor_type;location;lat;lon;timestamp;temperature;humidity
16315;DHT22;8266;52.150;4.768;2022-09-09T00:00:26;20.00;99.90
16315;DHT22;8266;52.150;4.768;2022-09-09T00:03:02;19.90;99.90
16315;DHT22;8266;52.150;4.768;2022-09-09T00:05:41;19.90;99.90
16315;DHT22;8266;52.150;4.768;2022-09-09T00:08:15;19.90;99.90
16315;DHT22;8266;52.150;4.768;2022-09-09T00:10:45;19.90;99.90
16315;DHT22;8266;52.150;4.768;2022-09-09T00:13:19;19.90;99.90
16315;DHT22;8266;52.150;4.768;2022-09-09T00:15:57;19.90;99.90
16315;DHT22;8266;52.150;4.768;2022-09-09T00:18:31;19.80;99.90
16315;DHT22;8266;52.150;4.768;2022-09-09T00:21:06;19.80;99.90
16315;DHT22;8266;52.150;4.768;2022-09-09T00:23:37;19.80;99.90
16315;DHT22;8266;52.150;4.768;2022-09-09T00:26:09;19.80;99.90
16315;DHT22;8266;52.150;4.768;2022-09-09T00:28:45;19.70;99.90
16315;DHT22;8266;52.150;4.768;2022-09-09T00:31:20;19.70;99.90
16315;DHT22;8266;52.150;4.768;2022-09-09T00:33:49;19.70;99.90
16315;DHT22;8266;52.150;4.768;2022-09-09T00:36:22;19.60;99.90
16315;DHT22;8266;52.150;4.768;2022-09-09T00:38:53;19.60;99.90
16315;DHT22;8266;52.150;4.768;2022-09-09T00:41:26;19.60;99.90
16315;DHT22;8266;52.150;4.768;2022-09-09T00:44:03;19.50;99.90
16315;DHT22;8266;52.150;4.768;2022-09-09T00:46:54;19.50;99.90
16315;DHT22;8266;52.150;4.768;2022-09-09T00:49:32;19.50;99.90
16315;DHT22;8266;52.150;4.768;2022-09-09T00:52:13;19.50;99.90
16315;DHT22;8266;52.150;4.768;2022-09-09T00:54:50;19.50;99.90
16315;DHT22;8266;52.150;4.768;2022-09-09T00:57:26;19.50;99.90
16315;DHT22;8266;52.150;4.768;2022-09-09T01:00:00;19.40;99.90
16315;DHT22;8266;52.150;4.768;2022-09-09T01:02:38;19.40;99.90
16315;DHT22;8266;52.150;4.768;2022-09-09T01:05:12;19.40;99.90
16315;DHT22;8266;52.150;4.768;2022-09-09T01:07:44;19.40;99.90
16315;DHT22;8266;52.150;4.768;2022-09-09T01:10:23;19.40;99.90
16315;DHT22;8266;52.150;4.768;2022-09-09T01:12:56;19.40;99.90
16315;DHT22;8266;52.150;4.768;2022-09-09T01:15:29;19.40;99.90
16315;DHT22;8266;52.150;4.768;2022-09-09T01:18:02;19.40;99.90
16315;DHT22;8266;52.150;4.768;2022-09-09T01:20:37;19.30;99.90
16315;DHT22;8266;52.150;4.768;2022-09-09T01:23:32;19.30;99.90
16315;DHT22;8266;52.150;4.768;2022-09-09T01:28:47;19.30;99.90
16315;DHT22;8266;52.150;4.768;2022-09-09T01:31:18;19.30;99.90
16315;DHT22;8266;52.150;4.768;2022-09-09T01:33:46;19.30;99.90
16315;DHT22;8266;52.150;4.768;2022-09-09T01:36:17;19.20;99.90
16315;DHT22;8266;52.150;4.768;2022-09-09T01:38:46;19.20;99.90
16315;DHT22;8266;52.150;4.768;2022-09-09T01:41:15;19.10;99.90
16315;DHT22;8266;52.150;4.768;2022-09-09T01:43:42;19.10;99.90
16315;DHT22;8266;52.150;4.768;2022-09-09T01:46:10;19.10;99.90
16315;DHT22;8266;52.150;4.768;2022-09-09T01:48:39;19.10;99.90
16315;DHT22;8266;52.150;4.768;2022-09-09T01:51:08;19.00;99.90
16315;DHT22;8266;52.150;4.768;2022-09-09T01:53:36;19.00;99.90
16315;DHT22;8266;52.150;4.768;2022-09-09T01:56:13;19.00;99.90
16315;DHT22;8266;52.150;4.768;2022-09-09T01:58:54;19.00;99.90
16315;DHT22;8266;52.150;4.768;2022-09-09T02:01:30;18.90;99.90
16315;DHT22;8266;52.150;4.768;2022-09-09T02:04:03;18.90;99.90
16315;DHT22;8266;52.150;4.768;2022-09-09T02:06:34;18.80;99.90
16315;DHT22;8266;52.150;4.768;2022-09-09T02:09:05;18.70;99.90
16315;DHT22;8266;52.150;4.768;2022-09-09T02:11:33;18.70;99.90
16315;DHT22;8266;52.150;4.768;2022-09-09T02:14:06;18.60;99.90
16315;DHT22;8266;52.150;4.768;2022-09-09T02:16:38;18.60;99.90
16315;DHT22;8266;52.150;4.768;2022-09-09T02:19:09;18.60;99.90
16315;DHT22;8266;52.150;4.768;2022-09-09T02:21:40;18.50;99.90
16315;DHT22;8266;52.150;4.768;2022-09-09T02:24:08;18.50;99.90
16315;DHT22;8266;52.150;4.768;2022-09-09T02:26:39;18.40;99.90
16315;DHT22;8266;52.150;4.768;2022-09-09T02:29:12;18.40;99.90
16315;DHT22;8266;52.150;4.768;2022-09-09T02:31:41;18.40;99.90
16315;DHT22;8266;52.150;4.768;2022-09-09T02:34:12;18.30;99.90
16315;DHT22;8266;52.150;4.768;2022-09-09T02:36:42;18.30;99.90
16315;DHT22;8266;52.150;4.768;2022-09-09T02:39:11;18.20;99.90
16315;DHT22;8266;52.150;4.768;2022-09-09T02:41:40;18.20;99.90
16315;DHT22;8266;52.150;4.768;2022-09-09T02:44:11;18.20;99.90
16315;DHT22;8266;52.150;4.768;2022-09-09T02:47:13;18.10;99.90
16315;DHT22;8266;52.150;4.768;2022-09-09T02:49:49;18.00;99.90
16315;DHT22;8266;52.150;4.768;2022-09-09T02:52:27;18.00;99.90
16315;DHT22;8266;52.150;4.768;2022-09-09T02:55:04;18.00;99.90
16315;DHT22;8266;52.150;4.768;2022-09-09T02:57:33;17.90;99.90
16315;DHT22;8266;52.150;4.768;2022-09-09T03:00:03;17.90;99.90
16315;DHT22;8266;52.150;4.768;2022-09-09T03:02:30;17.90;99.90
16315;DHT22;8266;52.150;4.768;2022-09-09T03:04:57;17.80;99.90
16315;DHT22;8266;52.150;4.768;2022-09-09T03:07:24;17.80;99.90
16315;DHT22;8266;52.150;4.768;2022-09-09T03:09:52;17.80;99.90
16315;DHT22;8266;52.150;4.768;2022-09-09T03:12:20;17.70;99.90
16315;DHT22;8266;52.150;4.768;2022-09-09T03:14:47;17.70;99.90
16315;DHT22;8266;52.150;4.768;2022-09-09T03:17:15;17.70;99.90
16315;DHT22;8266;52.150;4.768;2022-09-09T03:19:43;17.60;99.90
16315;DHT22;8266;52.150;4.768;2022-09-09T03:22:10;17.60;99.90
16315;DHT22;8266;52.150;4.768;2022-09-09T03:24:39;17.50;99.90
16315;DHT22;8266;52.150;4.768;2022-09-09T03:27:06;17.50;99.90
16315;DHT22;8266;52.150;4.768;2022-09-09T03:29:33;17.50;99.90
16315;DHT22;8266;52.150;4.768;2022-09-09T03:31:59;17.50;99.90
16315;DHT22;8266;52.150;4.768;2022-09-09T03:34:28;17.40;99.90
16315;DHT22;8266;52.150;4.768;2022-09-09T03:36:55;17.40;99.90
16315;DHT22;8266;52.150;4.768;2022-09-09T03:39:22;17.40;99.90
16315;DHT22;8266;52.150;4.768;2022-09-09T03:41:48;17.30;99.90
16315;DHT22;8266;52.150;4.768;2022-09-09T03:44:15;17.20;99.90
16315;DHT22;8266;52.150;4.768;2022-09-09T03:46:42;17.20;99.90
16315;DHT22;8266;52.150;4.768;2022-09-09T03:49:09;17.20;99.90
16315;DHT22;8266;52.150;4.768;2022-09-09T03:51:38;17.10;99.90
16315;DHT22;8266;52.150;4.768;2022-09-09T03:54:05;17.10;99.90
16315;DHT22;8266;52.150;4.768;2022-09-09T03:56:35;17.10;99.90
16315;DHT22;8266;52.150;4.768;2022-09-09T03:59:03;17.10;99.90
16315;DHT22;8266;52.150;4.768;2022-09-09T04:01:30;17.10;99.90
16315;DHT22;8266;52.150;4.768;2022-09-09T04:03:57;17.10;99.90
16315;DHT22;8266;52.150;4.768;2022-09-09T04:06:24;17.00;99.90
16315;DHT22;8266;52.150;4.768;2022-09-09T04:08:55;17.00;99.90
16315;DHT22;8266;52.150;4.768;2022-09-09T04:11:22;17.00;99.90
16315;DHT22;8266;52.150;4.768;2022-09-09T04:13:49;17.00;99.90
16315;DHT22;8266;52.150;4.768;2022-09-09T04:16:16;17.00;99.90
16315;DHT22;8266;52.150;4.768;2022-09-09T04:18:46;17.00;99.90
16315;DHT22;8266;52.150;4.768;2022-09-09T04:21:14;17.00;99.90
16315;DHT22;8266;52.150;4.768;2022-09-09T04:23:41;17.00;99.90
16315;DHT22;8266;52.150;4.768;2022-09-09T04:26:10;17.00;99.90
16315;DHT22;8266;52.150;4.768;2022-09-09T04:28:37;17.00;99.90
16315;DHT22;8266;52.150;4.768;2022-09-09T04:31:05;17.00;99.90
16315;DHT22;8266;52.150;4.768;2022-09-09T04:33:33;16.90;99.90
16315;DHT22;8266;52.150;4.768;2022-09-09T04:36:00;16.90;99.90
16315;DHT22;8266;52.150;4.768;2022-09-09T04:38:27;16.90;99.90
16315;DHT22;8266;52.150;4.768;2022-09-09T04:40:54;16.90;99.90
16315;DHT22;8266;52.150;4.768;2022-09-09T04:43:25;16.90;99.90
16315;DHT22;8266;52.150;4.768;2022-09-09T04:45:53;16.90;99.90
16315;DHT22;8266;52.150;4.768;2022-09-09T04:48:20;16.90;99.90
16315;DHT22;8266;52.150;4.768;2022-09-09T04:50:54;16.90;99.90
16315;DHT22;8266;52.150;4.768;2022-09-09T04:53:25;16.80;99.90
16315;DHT22;8266;52.150;4.768;2022-09-09T04:55:52;16.80;99.90
16315;DHT22;8266;52.150;4.768;2022-09-09T04:58:19;16.80;99.90
16315;DHT22;8266;52.150;4.768;2022-09-09T05:00:49;16.80;99.90
16315;DHT22;8266;52.150;4.768;2022-09-09T05:03:17;16.80;99.90
16315;DHT22;8266;52.150;4.768;2022-09-09T05:05:44;16.90;99.90
16315;DHT22;8266;52.150;4.768;2022-09-09T05:08:11;16.90;99.90
16315;DHT22;8266;52.150;4.768;2022-09-09T05:10:39;16.90;99.90
16315;DHT22;8266;52.150;4.768;2022-09-09T05:13:07;16.80;99.90
16315;DHT22;8266;52.150;4.768;2022-09-09T05:15:34;16.90;99.90
16315;DHT22;8266;52.150;4.768;2022-09-09T05:18:03;16.90;99.90
16315;DHT22;8266;52.150;4.768;2022-09-09T05:20:30;16.90;99.90
16315;DHT22;8266;52.150;4.768;2022-09-09T05:22:57;16.90;99.90
16315;DHT22;8266;52.150;4.768;2022-09-09T05:25:24;16.90;99.90
16315;DHT22;8266;52.150;4.768;2022-09-09T05:27:52;16.90;99.90
16315;DHT22;8266;52.150;4.768;2022-09-09T05:30:20;16.90;99.90
16315;DHT22;8266;52.150;4.768;2022-09-09T05:32:47;16.90;99.90
16315;DHT22;8266;52.150;4.768;2022-09-09T05:35:16;16.90;99.90
16315;DHT22;8266;52.150;4.768;2022-09-09T05:37:44;16.90;99.90
16315;DHT22;8266;52.150;4.768;2022-09-09T05:40:12;16.90;99.90
16315;DHT22;8266;52.150;4.768;2022-09-09T05:42:39;16.90;99.90
16315;DHT22;8266;52.150;4.768;2022-09-09T05:45:07;16.90;99.90
16315;DHT22;8266;52.150;4.768;2022-09-09T05:47:34;16.90;99.90
16315;DHT22;8266;52.150;4.768;2022-09-09T05:50:03;16.90;99.90
16315;DHT22;8266;52.150;4.768;2022-09-09T05:52:32;16.90;99.90
16315;DHT22;8266;52.150;4.768;2022-09-09T05:54:59;16.90;99.90
16315;DHT22;8266;52.150;4.768;2022-09-09T05:57:26;17.00;99.90
16315;DHT22;8266;52.150;4.768;2022-09-09T05:59:53;17.00;99.90
16315;DHT22;8266;52.150;4.768;2022-09-09T06:02:20;17.00;99.90
16315;DHT22;8266;52.150;4.768;2022-09-09T06:04:47;17.00;99.90
16315;DHT22;8266;52.150;4.768;2022-09-09T06:07:14;17.10;99.90
16315;DHT22;8266;52.150;4.768;2022-09-09T06:09:42;17.10;99.90
16315;DHT22;8266;52.150;4.768;2022-09-09T06:12:09;17.20;99.90
16315;DHT22;8266;52.150;4.768;2022-09-09T06:14:36;17.30;99.90
16315;DHT22;8266;52.150;4.768;2022-09-09T06:17:03;17.40;99.90
16315;DHT22;8266;52.150;4.768;2022-09-09T06:19:30;17.40;99.90
16315;DHT22;8266;52.150;4.768;2022-09-09T06:21:57;17.50;99.90
16315;DHT22;8266;52.150;4.768;2022-09-09T06:24:25;17.70;99.90
16315;DHT22;8266;52.150;4.768;2022-09-09T06:26:53;17.70;99.90
16315;DHT22;8266;52.150;4.768;2022-09-09T06:29:20;17.80;99.90
16315;DHT22;8266;52.150;4.768;2022-09-09T06:31:47;17.80;99.90
16315;DHT22;8266;52.150;4.768;2022-09-09T06:34:14;17.90;99.90
16315;DHT22;8266;52.150;4.768;2022-09-09T06:36:41;18.00;99.90
16315;DHT22;8266;52.150;4.768;2022-09-09T06:39:08;18.00;99.90
16315;DHT22;8266;52.150;4.768;2022-09-09T06:41:37;18.10;99.90
16315;DHT22;8266;52.150;4.768;2022-09-09T06:44:06;18.10;99.90
16315;DHT22;8266;52.150;4.768;2022-09-09T06:46:34;18.20;99.90
16315;DHT22;8266;52.150;4.768;2022-09-09T06:49:08;18.20;99.90
16315;DHT22;8266;52.150;4.768;2022-09-09T06:51:40;18.30;99.90
16315;DHT22;8266;52.150;4.768;2022-09-09T06:54:08;18.40;99.90
16315;DHT22;8266;52.150;4.768;2022-09-09T06:56:37;18.40;99.90
16315;DHT22;8266;52.150;4.768;2022-09-09T06:59:08;18.40;99.90
16315;DHT22;8266;52.150;4.768;2022-09-09T07:01:43;18.50;99.90
16315;DHT22;8266;52.150;4.768;2022-09-09T07:04:16;18.50;99.90
16315;DHT22;8266;52.150;4.768;2022-09-09T07:06:49;18.60;99.90
16315;DHT22;8266;52.150;4.768;2022-09-09T07:09:18;18.60;99.90
16315;DHT22;8266;52.150;4.768;2022-09-09T07:11:46;18.70;99.90
16315;DHT22;8266;52.150;4.768;2022-09-09T07:14:15;18.70;99.90
16315;DHT22;8266;52.150;4.768;2022-09-09T07:16:42;18.70;99.90
16315;DHT22;8266;52.150;4.768;2022-09-09T07:19:10;18.80;99.90
16315;DHT22;8266;52.150;4.768;2022-09-09T07:21:38;18.80;99.90
16315;DHT22;8266;52.150;4.768;2022-09-09T07:24:06;18.80;99.90
16315;DHT22;8266;52.150;4.768;2022-09-09T07:26:36;18.90;99.90
16315;DHT22;8266;52.150;4.768;2022-09-09T07:29:03;18.90;99.90
16315;DHT22;8266;52.150;4.768;2022-09-09T07:31:37;18.90;99.90
16315;DHT22;8266;52.150;4.768;2022-09-09T07:34:05;18.90;99.90
16315;DHT22;8266;52.150;4.768;2022-09-09T07:36:34;18.90;99.90
16315;DHT22;8266;52.150;4.768;2022-09-09T07:39:04;19.00;99.90
16315;DHT22;8266;52.150;4.768;2022-09-09T07:41:33;19.00;99.90
16315;DHT22;8266;52.150;4.768;2022-09-09T07:44:04;19.00;99.90
16315;DHT22;8266;52.150;4.768;2022-09-09T07:46:36;19.10;99.90
16315;DHT22;8266;52.150;4.768;2022-09-09T07:49:05;19.20;99.90
16315;DHT22;8266;52.150;4.768;2022-09-09T07:51:33;19.10;99.90
16315;DHT22;8266;52.150;4.768;2022-09-09T07:54:03;19.20;99.90
16315;DHT22;8266;52.150;4.768;2022-09-09T07:56:30;19.20;99.90
16315;DHT22;8266;52.150;4.768;2022-09-09T07:58:58;19.30;99.90
16315;DHT22;8266;52.150;4.768;2022-09-09T08:01:31;19.40;99.90
16315;DHT22;8266;52.150;4.768;2022-09-09T08:04:01;19.40;99.90
16315;DHT22;8266;52.150;4.768;2022-09-09T08:06:30;19.50;99.90
16315;DHT22;8266;52.150;4.768;2022-09-09T08:08:58;19.50;99.90
16315;DHT22;8266;52.150;4.768;2022-09-09T08:11:27;19.60;99.90
16315;DHT22;8266;52.150;4.768;2022-09-09T08:13:54;19.60;99.90
16315;DHT22;8266;52.150;4.768;2022-09-09T08:16:25;19.70;99.90
16315;DHT22;8266;52.150;4.768;2022-09-09T08:18:52;19.70;99.90
16315;DHT22;8266;52.150;4.768;2022-09-09T08:21:22;19.70;99.90
16315;DHT22;8266;52.150;4.768;2022-09-09T08:23:51;19.80;99.90
16315;DHT22;8266;52.150;4.768;2022-09-09T08:26:21;19.80;99.90
16315;DHT22;8266;52.150;4.768;2022-09-09T08:28:49;19.80;99.90
16315;DHT22;8266;52.150;4.768;2022-09-09T08:31:18;19.80;99.90
16315;DHT22;8266;52.150;4.768;2022-09-09T08:33:46;19.80;99.90
16315;DHT22;8266;52.150;4.768;2022-09-09T08:36:17;19.80;99.90
16315;DHT22;8266;52.150;4.768;2022-09-09T08:38:48;19.80;99.90
16315;DHT22;8266;52.150;4.768;2022-09-09T08:41:42;19.80;99.90
16315;DHT22;8266;52.150;4.768;2022-09-09T08:44:19;19.80;99.90
16315;DHT22;8266;52.150;4.768;2022-09-09T08:46:55;19.80;99.90
16315;DHT22;8266;52.150;4.768;2022-09-09T08:49:40;19.80;99.90
16315;DHT22;8266;52.150;4.768;2022-09-09T08:52:16;19.80;99.90
16315;DHT22;8266;52.150;4.768;2022-09-09T08:54:46;19.90;99.90
16315;DHT22;8266;52.150;4.768;2022-09-09T08:57:19;19.90;99.90
16315;DHT22;8266;52.150;4.768;2022-09-09T08:59:50;19.90;99.90
16315;DHT22;8266;52.150;4.768;2022-09-09T09:02:22;19.90;99.90
16315;DHT22;8266;52.150;4.768;2022-09-09T09:04:58;19.90;99.90
16315;DHT22;8266;52.150;4.768;2022-09-09T09:07:36;19.90;99.90
16315;DHT22;8266;52.150;4.768;2022-09-09T09:10:12;19.90;99.90
16315;DHT22;8266;52.150;4.768;2022-09-09T09:12:44;20.00;99.90
16315;DHT22;8266;52.150;4.768;2022-09-09T09:15:18;20.00;99.90
16315;DHT22;8266;52.150;4.768;2022-09-09T09:17:46;20.00;99.90
16315;DHT22;8266;52.150;4.768;2022-09-09T09:20:14;20.00;99.90
16315;DHT22;8266;52.150;4.768;2022-09-09T09:22:47;20.00;99.90
16315;DHT22;8266;52.150;4.768;2022-09-09T09:25:20;20.10;99.90
16315;DHT22;8266;52.150;4.768;2022-09-09T09:28:02;20.10;99.90
16315;DHT22;8266;52.150;4.768;2022-09-09T09:30:35;20.10;99.90
16315;DHT22;8266;52.150;4.768;2022-09-09T09:33:08;20.10;99.90
16315;DHT22;8266;52.150;4.768;2022-09-09T09:36:00;20.00;99.90
16315;DHT22;8266;52.150;4.768;2022-09-09T09:38:28;20.00;99.90
16315;DHT22;8266;52.150;4.768;2022-09-09T09:40:58;20.00;99.90
16315;DHT22;8266;52.150;4.768;2022-09-09T09:43:28;20.00;99.90
16315;DHT22;8266;52.150;4.768;2022-09-09T09:45:57;19.90;99.90
16315;DHT22;8266;52.150;4.768;2022-09-09T09:48:25;19.90;99.90
16315;DHT22;8266;52.150;4.768;2022-09-09T09:50:55;19.90;99.90
16315;DHT22;8266;52.150;4.768;2022-09-09T09:53:25;19.90;99.90
16315;DHT22;8266;52.150;4.768;2022-09-09T09:55:57;19.90;99.90
16315;DHT22;8266;52.150;4.768;2022-09-09T09:58:25;19.90;99.90
16315;DHT22;8266;52.150;4.768;2022-09-09T10:00:55;19.90;99.90
16315;DHT22;8266;52.150;4.768;2022-09-09T10:03:25;19.90;99.90
16315;DHT22;8266;52.150;4.768;2022-09-09T10:05:53;19.90;99.90
16315;DHT22;8266;52.150;4.768;2022-09-09T10:08:22;20.00;99.90
16315;DHT22;8266;52.150;4.768;2022-09-09T10:13:49;20.00;99.90
16315;DHT22;8266;52.150;4.768;2022-09-09T10:16:28;20.00;99.90
16315;DHT22;8266;52.150;4.768;2022-09-09T10:18:59;20.10;99.90
16315;DHT22;8266;52.150;4.768;2022-09-09T10:27:46;20.20;99.90
16315;DHT22;8266;52.150;4.768;2022-09-09T10:30:21;20.30;99.90
16315;DHT22;8266;52.150;4.768;2022-09-09T10:32:53;20.50;99.90
16315;DHT22;8266;52.150;4.768;2022-09-09T10:35:29;20.60;99.90
16315;DHT22;8266;52.150;4.768;2022-09-09T10:38:11;20.60;99.90
16315;DHT22;8266;52.150;4.768;2022-09-09T10:40:58;20.70;99.90
16315;DHT22;8266;52.150;4.768;2022-09-09T10:43:39;20.70;99.90
16315;DHT22;8266;52.150;4.768;2022-09-09T10:46:13;20.80;99.90
16315;DHT22;8266;52.150;4.768;2022-09-09T10:48:56;20.80;99.90
16315;DHT22;8266;52.150;4.768;2022-09-09T10:51:33;20.90;99.90
16315;DHT22;8266;52.150;4.768;2022-09-09T10:54:22;20.90;99.90
16315;DHT22;8266;52.150;4.768;2022-09-09T10:56:55;20.90;99.90
16315;DHT22;8266;52.150;4.768;2022-09-09T10:59:27;21.00;99.90
16315;DHT22;8266;52.150;4.768;2022-09-09T11:02:03;21.00;99.90
16315;DHT22;8266;52.150;4.768;2022-09-09T11:04:37;21.10;99.90
16315;DHT22;8266;52.150;4.768;2022-09-09T11:07:11;21.10;99.90
16315;DHT22;8266;52.150;4.768;2022-09-09T11:09:54;21.20;99.90
16315;DHT22;8266;52.150;4.768;2022-09-09T11:12:23;21.20;99.90
16315;DHT22;8266;52.150;4.768;2022-09-09T11:14:56;21.30;99.90
16315;DHT22;8266;52.150;4.768;2022-09-09T11:17:32;21.40;99.90
16315;DHT22;8266;52.150;4.768;2022-09-09T11:20:00;21.40;99.90
16315;DHT22;8266;52.150;4.768;2022-09-09T11:22:30;21.50;99.90
16315;DHT22;8266;52.150;4.768;2022-09-09T11:25:03;21.50;99.90
16315;DHT22;8266;52.150;4.768;2022-09-09T11:27:36;21.50;99.90
16315;DHT22;8266;52.150;4.768;2022-09-09T11:30:20;21.50;99.90
16315;DHT22;8266;52.150;4.768;2022-09-09T11:36:21;21.40;99.90
16315;DHT22;8266;52.150;4.768;2022-09-09T11:38:56;21.40;99.90
16315;DHT22;8266;52.150;4.768;2022-09-09T11:41:32;21.40;99.90
16315;DHT22;8266;52.150;4.768;2022-09-09T11:44:08;21.30;99.90
16315;DHT22;8266;52.150;4.768;2022-09-09T11:46:38;21.30;99.90
16315;DHT22;8266;52.150;4.768;2022-09-09T11:49:26;21.30;99.90
16315;DHT22;8266;52.150;4.768;2022-09-09T11:51:55;21.30;99.90
16315;DHT22;8266;52.150;4.768;2022-09-09T11:54:29;21.40;99.90
16315;DHT22;8266;52.150;4.768;2022-09-09T11:56:57;21.40;99.90
16315;DHT22;8266;52.150;4.768;2022-09-09T11:59:26;21.40;99.90
16315;DHT22;8266;52.150;4.768;2022-09-09T12:01:57;21.50;99.90
16315;DHT22;8266;52.150;4.768;2022-09-09T12:04:32;21.50;99.90
16315;DHT22;8266;52.150;4.768;2022-09-09T12:07:21;21.60;99.90
16315;DHT22;8266;52.150;4.768;2022-09-09T12:09:54;21.70;99.90
16315;DHT22;8266;52.150;4.768;2022-09-09T12:12:29;21.80;99.90
16315;DHT22;8266;52.150;4.768;2022-09-09T12:15:16;21.80;99.90
16315;DHT22;8266;52.150;4.768;2022-09-09T12:17:48;21.90;99.90
16315;DHT22;8266;52.150;4.768;2022-09-09T12:20:19;21.80;99.90
16315;DHT22;8266;52.150;4.768;2022-09-09T12:23:16;21.90;99.90
16315;DHT22;8266;52.150;4.768;2022-09-09T12:25:57;21.90;99.90
16315;DHT22;8266;52.150;4.768;2022-09-09T12:28:32;21.90;99.90
16315;DHT22;8266;52.150;4.768;2022-09-09T12:31:10;21.80;99.90
16315;DHT22;8266;52.150;4.768;2022-09-09T12:33:44;21.80;99.90
16315;DHT22;8266;52.150;4.768;2022-09-09T12:36:15;21.80;99.90
16315;DHT22;8266;52.150;4.768;2022-09-09T12:38:45;21.70;99.90
16315;DHT22;8266;52.150;4.768;2022-09-09T12:41:23;21.60;99.90
16315;DHT22;8266;52.150;4.768;2022-09-09T12:43:50;21.50;99.90
16315;DHT22;8266;52.150;4.768;2022-09-09T12:46:33;21.40;99.90
16315;DHT22;8266;52.150;4.768;2022-09-09T12:49:03;21.30;99.90
16315;DHT22;8266;52.150;4.768;2022-09-09T12:51:32;21.20;99.90
16315;DHT22;8266;52.150;4.768;2022-09-09T12:54:01;21.10;99.90
16315;DHT22;8266;52.150;4.768;2022-09-09T12:56:30;21.00;99.90
16315;DHT22;8266;52.150;4.768;2022-09-09T12:58:58;20.90;99.90
16315;DHT22;8266;52.150;4.768;2022-09-09T13:01:27;20.70;99.90
16315;DHT22;8266;52.150;4.768;2022-09-09T13:03:55;20.60;99.90
16315;DHT22;8266;52.150;4.768;2022-09-09T13:06:25;20.40;99.90
16315;DHT22;8266;52.150;4.768;2022-09-09T13:12:23;20.20;99.90
16315;DHT22;8266;52.150;4.768;2022-09-09T13:15:19;20.10;99.90
16315;DHT22;8266;52.150;4.768;2022-09-09T13:18:02;20.10;99.90
16315;DHT22;8266;52.150;4.768;2022-09-09T13:20:48;20.00;99.90
16315;DHT22;8266;52.150;4.768;2022-09-09T13:23:33;19.90;99.90
16315;DHT22;8266;52.150;4.768;2022-09-09T13:26:22;19.90;99.90
16315;DHT22;8266;52.150;4.768;2022-09-09T13:28:55;19.90;99.90
16315;DHT22;8266;52.150;4.768;2022-09-09T13:31:36;19.90;99.90
16315;DHT22;8266;52.150;4.768;2022-09-09T13:34:11;19.90;99.90
16315;DHT22;8266;52.150;4.768;2022-09-09T13:36:40;19.90;99.90
16315;DHT22;8266;52.150;4.768;2022-09-09T13:39:16;19.90;99.90
16315;DHT22;8266;52.150;4.768;2022-09-09T13:41:45;19.90;99.90
16315;DHT22;8266;52.150;4.768;2022-09-09T13:44:25;19.90;99.90
16315;DHT22;8266;52.150;4.768;2022-09-09T13:47:01;20.00;99.90
16315;DHT22;8266;52.150;4.768;2022-09-09T13:49:29;20.00;99.90
16315;DHT22;8266;52.150;4.768;2022-09-09T13:52:09;20.00;99.90
16315;DHT22;8266;52.150;4.768;2022-09-09T13:54:37;20.00;99.90
16315;DHT22;8266;52.150;4.768;2022-09-09T13:57:05;20.10;99.90
16315;DHT22;8266;52.150;4.768;2022-09-09T13:59:33;20.10;99.90
16315;DHT22;8266;52.150;4.768;2022-09-09T14:02:02;20.20;99.90
16315;DHT22;8266;52.150;4.768;2022-09-09T14:04:29;20.20;99.90
16315;DHT22;8266;52.150;4.768;2022-09-09T14:06:56;20.30;99.90
16315;DHT22;8266;52.150;4.768;2022-09-09T14:09:23;20.30;99.90
16315;DHT22;8266;52.150;4.768;2022-09-09T14:11:50;20.40;99.90
16315;DHT22;8266;52.150;4.768;2022-09-09T14:14:17;20.50;99.90
16315;DHT22;8266;52.150;4.768;2022-09-09T14:16:46;20.50;99.90
16315;DHT22;8266;52.150;4.768;2022-09-09T14:19:13;20.60;99.90
16315;DHT22;8266;52.150;4.768;2022-09-09T14:21:40;20.60;99.90
16315;DHT22;8266;52.150;4.768;2022-09-09T14:24:07;20.60;99.90
16315;DHT22;8266;52.150;4.768;2022-09-09T14:26:33;20.60;99.90
16315;DHT22;8266;52.150;4.768;2022-09-09T14:29:01;20.60;99.90
16315;DHT22;8266;52.150;4.768;2022-09-09T14:31:27;20.60;99.90
16315;DHT22;8266;52.150;4.768;2022-09-09T14:33:56;20.60;99.90
16315;DHT22;8266;52.150;4.768;2022-09-09T14:36:24;20.60;99.90
16315;DHT22;8266;52.150;4.768;2022-09-09T14:38:51;20.50;99.90
16315;DHT22;8266;52.150;4.768;2022-09-09T14:41:20;20.50;99.90
16315;DHT22;8266;52.150;4.768;2022-09-09T14:43:48;20.50;99.90
16315;DHT22;8266;52.150;4.768;2022-09-09T14:46:17;20.50;99.90
16315;DHT22;8266;52.150;4.768;2022-09-09T14:48:46;20.40;99.90
16315;DHT22;8266;52.150;4.768;2022-09-09T14:51:35;20.40;99.90
16315;DHT22;8266;52.150;4.768;2022-09-09T14:54:03;20.30;99.90
16315;DHT22;8266;52.150;4.768;2022-09-09T14:56:31;20.40;99.90
16315;DHT22;8266;52.150;4.768;2022-09-09T14:59:00;20.30;99.90
16315;DHT22;8266;52.150;4.768;2022-09-09T15:01:28;20.30;99.90
16315;DHT22;8266;52.150;4.768;2022-09-09T15:03:57;20.30;99.90
16315;DHT22;8266;52.150;4.768;2022-09-09T15:06:28;20.30;99.90
16315;DHT22;8266;52.150;4.768;2022-09-09T15:08:55;20.30;99.90
16315;DHT22;8266;52.150;4.768;2022-09-09T15:11:26;20.30;99.90
16315;DHT22;8266;52.150;4.768;2022-09-09T15:13:54;20.40;99.90
16315;DHT22;8266;52.150;4.768;2022-09-09T15:16:23;20.40;99.90
16315;DHT22;8266;52.150;4.768;2022-09-09T15:18:51;20.50;99.90
16315;DHT22;8266;52.150;4.768;2022-09-09T15:21:21;20.50;99.90
16315;DHT22;8266;52.150;4.768;2022-09-09T15:23:51;20.60;99.90
16315;DHT22;8266;52.150;4.768;2022-09-09T15:26:19;20.80;99.90
16315;DHT22;8266;52.150;4.768;2022-09-09T15:28:46;20.90;99.90
16315;DHT22;8266;52.150;4.768;2022-09-09T15:31:14;21.00;99.90
16315;DHT22;8266;52.150;4.768;2022-09-09T15:33:47;21.20;99.90
16315;DHT22;8266;52.150;4.768;2022-09-09T15:36:15;21.30;99.90
16315;DHT22;8266;52.150;4.768;2022-09-09T15:38:42;21.40;99.90
16315;DHT22;8266;52.150;4.768;2022-09-09T15:41:11;21.50;99.90
16315;DHT22;8266;52.150;4.768;2022-09-09T15:43:42;21.60;99.90
16315;DHT22;8266;52.150;4.768;2022-09-09T15:46:23;21.60;99.90
16315;DHT22;8266;52.150;4.768;2022-09-09T15:48:54;21.70;99.90
16315;DHT22;8266;52.150;4.768;2022-09-09T15:51:22;21.70;99.90
16315;DHT22;8266;52.150;4.768;2022-09-09T15:53:54;21.70;99.90
16315;DHT22;8266;52.150;4.768;2022-09-09T15:56:25;21.70;99.90
16315;DHT22;8266;52.150;4.768;2022-09-09T15:58:55;21.70;99.90
16315;DHT22;8266;52.150;4.768;2022-09-09T16:01:22;21.60;99.90
16315;DHT22;8266;52.150;4.768;2022-09-09T16:03:50;21.60;99.90
16315;DHT22;8266;52.150;4.768;2022-09-09T16:06:19;21.60;99.90
16315;DHT22;8266;52.150;4.768;2022-09-09T16:08:49;21.50;99.90
16315;DHT22;8266;52.150;4.768;2022-09-09T16:11:18;21.50;99.90
16315;DHT22;8266;52.150;4.768;2022-09-09T16:13:50;21.40;99.90
16315;DHT22;8266;52.150;4.768;2022-09-09T16:16:18;21.40;99.90
16315;DHT22;8266;52.150;4.768;2022-09-09T16:18:48;21.40;99.90
16315;DHT22;8266;52.150;4.768;2022-09-09T16:21:19;21.30;99.90
16315;DHT22;8266;52.150;4.768;2022-09-09T16:23:47;21.30;99.90
16315;DHT22;8266;52.150;4.768;2022-09-09T16:26:15;21.20;99.90
16315;DHT22;8266;52.150;4.768;2022-09-09T16:28:43;21.20;99.90